createdAt,value
2018-05-07T00:00:01.345Z,0
2018-05-07T00:01:01.937Z,0
2018-05-07T00:02:02.441Z,0
2018-05-07T00:03:03.009Z,0
2018-05-07T00:04:03.625Z,0
2018-05-07T00:05:04.157Z,0
2018-05-07T00:06:04.813Z,0
2018-05-07T00:07:05.305Z,0
2018-05-07T00:08:05.923Z,0
2018-05-07T00:09:06.457Z,0
2018-05-07T00:10:07.030Z,0
2018-05-07T00:11:07.634Z,0
2018-05-07T00:12:08.176Z,0
2018-05-07T00:13:08.748Z,0
2018-05-07T00:14:09.322Z,0
2018-05-07T00:15:09.894Z,0
2018-05-07T00:16:10.467Z,0
2018-05-07T00:17:11.040Z,0
2018-05-07T00:18:11.612Z,0
2018-05-07T00:19:12.185Z,0
2018-05-07T00:20:12.756Z,0
2018-05-07T00:21:13.328Z,0
2018-05-07T00:22:13.900Z,0
2018-05-07T00:23:14.474Z,0
2018-05-07T00:24:15.050Z,0
2018-05-07T00:25:15.619Z,0
2018-05-07T00:26:16.192Z,0
2018-05-07T00:27:16.786Z,0
2018-05-07T00:28:17.359Z,0
2018-05-07T00:29:17.912Z,0
2018-05-07T00:30:18.491Z,0
2018-05-07T00:31:19.060Z,0
2018-05-07T00:32:19.633Z,0
2018-05-07T00:33:20.253Z,0
2018-05-07T00:34:20.786Z,0
2018-05-07T00:35:21.355Z,0
2018-05-07T00:36:21.926Z,0
2018-05-07T00:37:22.500Z,0
2018-05-07T00:38:23.072Z,0
2018-05-07T00:39:23.644Z,0
2018-05-07T00:40:24.217Z,0
2018-05-07T00:41:24.789Z,0
2018-05-07T00:42:25.361Z,0
2018-05-07T00:43:25.935Z,0
2018-05-07T00:44:26.508Z,0
2018-05-07T00:45:27.085Z,0
2018-05-07T00:46:27.656Z,0
2018-05-07T00:47:28.230Z,0
2018-05-07T00:48:28.804Z,0
2018-05-07T00:49:29.386Z,0
2018-05-07T00:50:30.025Z,0
2018-05-07T00:51:30.536Z,0
2018-05-07T00:52:31.108Z,0
2018-05-07T00:53:31.683Z,0
2018-05-07T00:54:32.255Z,0
2018-05-07T00:55:32.830Z,0
2018-05-07T00:56:33.406Z,0
2018-05-07T00:57:33.975Z,0
2018-05-07T00:58:34.547Z,0
2018-05-07T00:59:35.123Z,0
2018-05-07T01:00:35.693Z,0
2018-05-07T01:01:36.265Z,0
2018-05-07T01:02:36.837Z,0
2018-05-07T01:03:37.408Z,0
2018-05-07T01:04:37.984Z,0
2018-05-07T01:05:38.551Z,0
2018-05-07T01:06:39.124Z,0
2018-05-07T01:07:39.697Z,0
2018-05-07T01:08:40.269Z,0
2018-05-07T01:09:40.841Z,0
2018-05-07T01:10:41.414Z,0
2018-05-07T01:11:41.984Z,0
2018-05-07T01:12:42.564Z,0
2018-05-07T01:13:43.131Z,0
2018-05-07T01:14:43.705Z,0
2018-05-07T01:15:44.314Z,0
2018-05-07T01:16:44.857Z,0
2018-05-07T01:17:45.437Z,0
2018-05-07T01:18:46.009Z,0
2018-05-07T01:19:46.583Z,0
2018-05-07T01:20:47.156Z,0
2018-05-07T01:21:47.730Z,0
2018-05-07T01:22:48.302Z,0
2018-05-07T01:23:48.876Z,0
2018-05-07T01:24:49.450Z,0
2018-05-07T01:25:50.024Z,0
2018-05-07T01:26:50.595Z,0
2018-05-07T01:27:51.177Z,0
2018-05-07T01:28:51.751Z,0
2018-05-07T01:29:52.322Z,0
2018-05-07T01:30:52.896Z,0
2018-05-07T01:31:53.467Z,0
2018-05-07T01:32:54.041Z,0
2018-05-07T01:33:54.614Z,0
2018-05-07T01:34:55.186Z,0
2018-05-07T01:35:55.770Z,0
2018-05-07T01:36:56.342Z,0
2018-05-07T01:37:56.920Z,0
2018-05-07T01:38:57.488Z,0
2018-05-07T01:39:58.063Z,0
2018-05-07T01:40:58.644Z,0
2018-05-07T01:41:59.218Z,0
2018-05-07T01:42:59.791Z,0
2018-05-07T01:44:00.364Z,0
2018-05-07T01:45:00.947Z,0
2018-05-07T01:46:01.520Z,0
2018-05-07T01:47:02.093Z,0
2018-05-07T01:48:02.667Z,0
2018-05-07T01:49:03.248Z,0
2018-05-07T01:50:03.822Z,0
2018-05-07T01:51:04.393Z,0
2018-05-07T01:52:04.963Z,0
2018-05-07T01:53:05.546Z,0
2018-05-07T01:54:06.119Z,0
2018-05-07T01:55:06.691Z,0
2018-05-07T01:56:07.263Z,0
2018-05-07T01:57:07.842Z,0
2018-05-07T01:58:08.409Z,0
2018-05-07T01:59:08.980Z,0
2018-05-07T02:00:09.551Z,0
2018-05-07T02:01:10.124Z,0
2018-05-07T02:02:10.699Z,0
2018-05-07T02:03:11.281Z,0
2018-05-07T02:04:11.851Z,0
2018-05-07T02:05:12.423Z,0
2018-05-07T02:06:12.996Z,0
2018-05-07T02:07:13.566Z,0
2018-05-07T02:08:14.140Z,0
2018-05-07T02:09:14.708Z,0
2018-05-07T02:10:15.282Z,0
2018-05-07T02:11:15.851Z,0
2018-05-07T02:12:16.424Z,0
2018-05-07T02:13:16.998Z,0
2018-05-07T02:14:17.568Z,0
2018-05-07T02:15:18.139Z,0
2018-05-07T02:16:18.718Z,0
2018-05-07T02:17:19.285Z,0
2018-05-07T02:18:19.858Z,0
2018-05-07T02:19:20.432Z,0
2018-05-07T02:20:21.005Z,0
2018-05-07T02:21:21.576Z,0
2018-05-07T02:22:22.147Z,0
2018-05-07T02:23:22.720Z,0
2018-05-07T02:24:23.292Z,0
2018-05-07T02:25:23.863Z,0
2018-05-07T02:26:24.434Z,0
2018-05-07T02:27:25.010Z,0
2018-05-07T02:28:25.575Z,0
2018-05-07T02:29:26.152Z,0
2018-05-07T02:30:26.720Z,0
2018-05-07T02:31:27.321Z,0
2018-05-07T02:32:27.862Z,0
2018-05-07T02:33:28.435Z,0
2018-05-07T02:34:29.005Z,0
2018-05-07T02:35:29.579Z,0
2018-05-07T02:36:30.160Z,0
2018-05-07T02:37:30.731Z,0
2018-05-07T02:38:31.303Z,0
2018-05-07T02:39:31.874Z,0
2018-05-07T02:40:32.447Z,0
2018-05-07T02:41:33.017Z,0
2018-05-07T02:42:33.588Z,0
2018-05-07T02:43:34.160Z,0
2018-05-07T02:44:34.730Z,0
2018-05-07T02:45:35.303Z,0
2018-05-07T02:46:35.884Z,0
2018-05-07T02:47:36.464Z,0
2018-05-07T02:48:37.036Z,0
2018-05-07T02:49:37.611Z,0
2018-05-07T02:50:38.182Z,0
2018-05-07T02:51:38.764Z,0
2018-05-07T02:52:39.334Z,0
2018-05-07T02:53:39.911Z,0
2018-05-07T02:54:40.478Z,0
2018-05-07T02:55:41.049Z,0
2018-05-07T02:56:41.621Z,0
2018-05-07T02:57:42.195Z,0
2018-05-07T02:58:42.766Z,0
2018-05-07T02:59:43.340Z,0
2018-05-07T03:00:43.911Z,0
2018-05-07T03:01:44.484Z,0
2018-05-07T03:02:45.055Z,0
2018-05-07T03:03:45.626Z,0
2018-05-07T03:04:46.196Z,0
2018-05-07T03:05:46.769Z,0
2018-05-07T03:06:47.339Z,0
2018-05-07T03:07:47.915Z,0
2018-05-07T03:08:48.482Z,0
2018-05-07T03:09:49.065Z,0
2018-05-07T03:10:49.645Z,0
2018-05-07T03:11:50.216Z,0
2018-05-07T03:12:50.809Z,0
2018-05-07T03:13:51.374Z,0
2018-05-07T03:14:51.953Z,0
2018-05-07T03:15:52.525Z,0
2018-05-07T03:16:53.098Z,0
2018-05-07T03:17:53.670Z,0
2018-05-07T03:18:54.243Z,0
2018-05-07T03:19:54.817Z,0
2018-05-07T03:20:55.397Z,0
2018-05-07T03:21:55.969Z,0
2018-05-07T03:22:56.540Z,0
2018-05-07T03:23:57.115Z,0
2018-05-07T03:24:57.685Z,0
2018-05-07T03:25:58.261Z,0
2018-05-07T03:26:58.828Z,0
2018-05-07T03:27:59.400Z,0
2018-05-07T03:28:59.975Z,0
2018-05-07T03:30:00.541Z,0
2018-05-07T03:31:01.112Z,0
2018-05-07T03:32:01.683Z,0
2018-05-07T03:33:02.254Z,0
2018-05-07T03:34:02.826Z,0
2018-05-07T03:35:03.394Z,0
2018-05-07T03:36:03.965Z,0
2018-05-07T03:37:04.536Z,0
2018-05-07T03:38:05.106Z,0
2018-05-07T03:39:05.680Z,0
2018-05-07T03:40:06.247Z,0
2018-05-07T03:41:06.818Z,0
2018-05-07T03:42:07.399Z,0
2018-05-07T03:43:07.981Z,0
2018-05-07T03:44:08.558Z,0
2018-05-07T03:45:09.138Z,0
2018-05-07T03:46:09.720Z,0
2018-05-07T03:47:10.294Z,0
2018-05-07T03:48:10.867Z,0
2018-05-07T03:49:11.439Z,0
2018-05-07T03:50:12.011Z,0
2018-05-07T03:51:12.584Z,0
2018-05-07T03:52:13.157Z,0
2018-05-07T03:53:13.732Z,0
2018-05-07T03:54:14.303Z,0
2018-05-07T03:55:14.876Z,0
2018-05-07T03:56:15.449Z,0
2018-05-07T03:57:16.021Z,0
2018-05-07T03:58:16.592Z,0
2018-05-07T03:59:17.165Z,0
2018-05-07T04:00:17.738Z,0
2018-05-07T04:01:18.311Z,0
2018-05-07T04:02:18.882Z,0
2018-05-07T04:03:19.456Z,0
2018-05-07T04:04:20.031Z,0
2018-05-07T04:05:20.599Z,0
2018-05-07T04:06:21.171Z,0
2018-05-07T04:07:21.747Z,0
2018-05-07T04:08:22.314Z,0
2018-05-07T04:09:22.885Z,0
2018-05-07T04:10:23.459Z,0
2018-05-07T04:11:24.032Z,0
2018-05-07T04:12:24.607Z,0
2018-05-07T04:13:25.177Z,0
2018-05-07T04:14:25.753Z,0
2018-05-07T04:15:26.323Z,0
2018-05-07T04:16:26.893Z,0
2018-05-07T04:17:27.464Z,0
2018-05-07T04:18:28.037Z,0
2018-05-07T04:19:28.613Z,0
2018-05-07T04:20:29.195Z,0
2018-05-07T04:21:29.771Z,0
2018-05-07T04:22:30.353Z,0
2018-05-07T04:23:30.973Z,5
2018-05-07T04:24:31.500Z,5
2018-05-07T04:25:32.073Z,5
2018-05-07T04:26:32.650Z,5
2018-05-07T04:27:33.219Z,5
2018-05-07T04:28:33.792Z,5
2018-05-07T04:29:34.365Z,5
2018-05-07T04:30:34.981Z,5
2018-05-07T04:31:35.511Z,5
2018-05-07T04:32:36.086Z,5
2018-05-07T04:33:36.663Z,5
2018-05-07T04:34:37.241Z,5
2018-05-07T04:35:37.817Z,5
2018-05-07T04:36:38.389Z,5
2018-05-07T04:37:38.972Z,5
2018-05-07T04:38:39.548Z,5
2018-05-07T04:39:40.130Z,5
2018-05-07T04:40:40.713Z,5
2018-05-07T04:41:41.287Z,5
2018-05-07T04:42:41.858Z,5
2018-05-07T04:43:42.442Z,5
2018-05-07T04:44:43.015Z,5
2018-05-07T04:45:43.589Z,5
2018-05-07T04:46:44.161Z,5
2018-05-07T04:47:44.737Z,5
2018-05-07T04:48:45.392Z,5
2018-05-07T04:49:45.885Z,10
2018-05-07T04:50:46.488Z,10
2018-05-07T04:51:47.043Z,10
2018-05-07T04:52:47.617Z,10
2018-05-07T04:53:48.190Z,10
2018-05-07T04:54:48.766Z,10
2018-05-07T04:55:49.343Z,10
2018-05-07T04:56:49.914Z,10
2018-05-07T04:57:50.487Z,10
2018-05-07T04:58:51.062Z,10
2018-05-07T04:59:51.648Z,10
2018-05-07T05:00:52.229Z,10
2018-05-07T05:01:52.804Z,10
2018-05-07T05:02:53.379Z,10
2018-05-07T05:03:53.953Z,10
2018-05-07T05:04:54.531Z,10
2018-05-07T05:05:55.102Z,10
2018-05-07T05:06:55.679Z,10
2018-05-07T05:07:56.263Z,10
2018-05-07T05:08:56.847Z,10
2018-05-07T05:09:57.423Z,10
2018-05-07T05:10:58.007Z,10
2018-05-07T05:11:58.580Z,10
2018-05-07T05:12:59.156Z,10
2018-05-07T05:13:59.740Z,10
2018-05-07T05:15:00.317Z,15
2018-05-07T05:16:00.892Z,15
2018-05-07T05:17:01.468Z,15
2018-05-07T05:18:02.041Z,15
2018-05-07T05:19:02.618Z,15
2018-05-07T05:20:03.191Z,15
2018-05-07T05:21:03.777Z,15
2018-05-07T05:22:04.341Z,15
2018-05-07T05:23:04.914Z,15
2018-05-07T05:24:05.490Z,15
2018-05-07T05:25:06.066Z,15
2018-05-07T05:26:06.641Z,15
2018-05-07T05:27:07.231Z,15
2018-05-07T05:28:07.812Z,15
2018-05-07T05:29:08.387Z,15
2018-05-07T05:30:08.961Z,15
2018-05-07T05:31:09.539Z,15
2018-05-07T05:32:10.113Z,15
2018-05-07T05:33:10.699Z,15
2018-05-07T05:34:11.272Z,15
2018-05-07T05:35:11.848Z,15
2018-05-07T05:36:12.424Z,15
2018-05-07T05:37:13.015Z,15
2018-05-07T05:38:13.591Z,15
2018-05-07T05:39:14.163Z,15
2018-05-07T05:40:14.738Z,15
2018-05-07T05:41:15.313Z,20
2018-05-07T05:42:15.887Z,20
2018-05-07T05:43:16.466Z,20
2018-05-07T05:44:17.050Z,20
2018-05-07T05:45:17.626Z,20
2018-05-07T05:46:18.207Z,20
2018-05-07T05:47:18.777Z,20
2018-05-07T05:48:19.354Z,20
2018-05-07T05:49:19.926Z,20
2018-05-07T05:50:20.521Z,20
2018-05-07T05:51:21.084Z,20
2018-05-07T05:52:21.654Z,20
2018-05-07T05:53:22.229Z,20
2018-05-07T05:54:22.804Z,20
2018-05-07T05:55:23.385Z,20
2018-05-07T05:56:24.032Z,20
2018-05-07T05:57:24.534Z,20
2018-05-07T05:58:25.112Z,20
2018-05-07T05:59:25.686Z,15
2018-05-07T06:00:26.273Z,15
2018-05-07T06:01:26.849Z,15
2018-05-07T06:02:27.425Z,15
2018-05-07T06:03:28.001Z,15
2018-05-07T06:04:28.579Z,15
2018-05-07T06:05:29.153Z,20
2018-05-07T06:06:29.731Z,20
2018-05-07T06:07:30.307Z,20
2018-05-07T06:08:30.883Z,20
2018-05-07T06:09:31.460Z,20
2018-05-07T06:10:32.034Z,20
2018-05-07T06:11:32.609Z,20
2018-05-07T06:12:33.186Z,20
2018-05-07T06:13:33.762Z,20
2018-05-07T06:14:34.363Z,20
2018-05-07T06:15:34.913Z,20
2018-05-07T06:16:35.490Z,20
2018-05-07T06:17:36.068Z,20
2018-05-07T06:18:36.653Z,20
2018-05-07T06:19:37.229Z,20
2018-05-07T06:20:37.809Z,20
2018-05-07T06:21:38.383Z,20
2018-05-07T06:22:38.958Z,20
2018-05-07T06:23:39.536Z,20
2018-05-07T06:24:40.112Z,20
2018-05-07T06:25:40.689Z,20
2018-05-07T06:26:41.265Z,20
2018-05-07T06:27:41.841Z,20
2018-05-07T06:28:42.418Z,20
2018-05-07T06:29:42.994Z,20
2018-05-07T06:30:43.573Z,20
2018-05-07T06:31:44.149Z,20
2018-05-07T06:32:44.726Z,20
2018-05-07T06:33:45.304Z,20
2018-05-07T06:34:45.882Z,25
2018-05-07T06:35:46.459Z,25
2018-05-07T06:36:47.036Z,25
2018-05-07T06:37:47.614Z,25
2018-05-07T06:38:48.193Z,25
2018-05-07T06:39:48.773Z,25
2018-05-07T06:40:49.346Z,25
2018-05-07T06:41:49.934Z,25
2018-05-07T06:42:50.510Z,25
2018-05-07T06:43:51.086Z,25
2018-05-07T06:44:51.666Z,25
2018-05-07T06:45:52.244Z,25
2018-05-07T06:46:52.820Z,25
2018-05-07T06:47:53.396Z,25
2018-05-07T06:48:53.975Z,25
2018-05-07T06:49:54.557Z,25
2018-05-07T06:50:55.132Z,25
2018-05-07T06:51:55.710Z,25
2018-05-07T06:52:56.287Z,25
2018-05-07T06:53:56.866Z,25
2018-05-07T06:54:57.450Z,25
2018-05-07T06:55:58.035Z,25
2018-05-07T06:56:58.613Z,25
2018-05-07T06:57:59.191Z,25
2018-05-07T06:58:59.768Z,25
2018-05-07T07:00:00.349Z,25
2018-05-07T07:01:00.924Z,25
2018-05-07T07:02:01.552Z,25
2018-05-07T07:03:02.215Z,25
2018-05-07T07:04:02.709Z,25
2018-05-07T07:05:03.286Z,25
2018-05-07T07:06:03.874Z,25
2018-05-07T07:07:04.461Z,25
2018-05-07T07:08:05.100Z,25
2018-05-07T07:09:05.623Z,25
2018-05-07T07:10:06.206Z,25
2018-05-07T07:11:06.794Z,25
2018-05-07T07:12:07.373Z,25
2018-05-07T07:13:07.951Z,25
2018-05-07T07:14:08.533Z,30
2018-05-07T07:15:09.109Z,30
2018-05-07T07:16:09.688Z,30
2018-05-07T07:17:10.268Z,30
2018-05-07T07:18:10.842Z,30
2018-05-07T07:19:11.422Z,30
2018-05-07T07:20:12.000Z,30
2018-05-07T07:21:12.578Z,30
2018-05-07T07:22:13.159Z,30
2018-05-07T07:23:13.735Z,30
2018-05-07T07:24:14.315Z,30
2018-05-07T07:25:14.899Z,30
2018-05-07T07:26:15.471Z,30
2018-05-07T07:27:16.061Z,30
2018-05-07T07:28:16.654Z,30
2018-05-07T07:29:17.228Z,30
2018-05-07T07:30:17.809Z,30
2018-05-07T07:31:18.387Z,30
2018-05-07T07:32:18.966Z,30
2018-05-07T07:33:19.555Z,30
2018-05-07T07:34:20.153Z,30
2018-05-07T07:35:20.729Z,30
2018-05-07T07:36:21.304Z,30
2018-05-07T07:37:21.887Z,30
2018-05-07T07:38:22.464Z,30
2018-05-07T07:39:23.048Z,30
2018-05-07T07:40:23.625Z,30
2018-05-07T07:41:24.214Z,30
2018-05-07T07:42:24.795Z,30
2018-05-07T07:43:25.385Z,30
2018-05-07T07:44:25.960Z,30
2018-05-07T07:45:26.537Z,30
2018-05-07T07:46:27.117Z,30
2018-05-07T07:47:27.694Z,30
2018-05-07T07:48:28.276Z,25
2018-05-07T07:49:28.855Z,30
2018-05-07T07:50:29.446Z,25
2018-05-07T07:51:30.027Z,30
2018-05-07T07:52:30.720Z,25
2018-05-07T07:53:31.221Z,25
2018-05-07T07:54:31.790Z,25
2018-05-07T07:55:32.381Z,25
2018-05-07T07:56:32.962Z,30
2018-05-07T07:57:33.540Z,30
2018-05-07T07:58:34.119Z,30
2018-05-07T07:59:34.699Z,30
2018-05-07T08:00:35.279Z,30
2018-05-07T08:01:35.931Z,30
2018-05-07T08:02:36.444Z,30
2018-05-07T08:03:37.023Z,30
2018-05-07T08:04:37.603Z,30
2018-05-07T08:05:38.194Z,30
2018-05-07T08:06:38.808Z,30
2018-05-07T08:07:39.353Z,30
2018-05-07T08:08:39.932Z,30
2018-05-07T08:09:40.510Z,30
2018-05-07T08:10:41.091Z,30
2018-05-07T08:11:41.670Z,30
2018-05-07T08:12:42.249Z,30
2018-05-07T08:13:42.833Z,30
2018-05-07T08:14:43.419Z,30
2018-05-07T08:15:43.999Z,30
2018-05-07T08:16:44.579Z,30
2018-05-07T08:17:45.158Z,30
2018-05-07T08:18:45.747Z,30
2018-05-07T08:19:46.325Z,30
2018-05-07T08:20:46.906Z,30
2018-05-07T08:21:47.496Z,30
2018-05-07T08:22:48.076Z,30
2018-05-07T08:23:48.655Z,30
2018-05-07T08:24:49.256Z,30
2018-05-07T08:25:49.828Z,30
2018-05-07T08:26:50.408Z,30
2018-05-07T08:27:50.999Z,30
2018-05-07T08:28:51.580Z,30
2018-05-07T08:29:52.158Z,30
2018-05-07T08:30:52.741Z,30
2018-05-07T08:31:53.318Z,30
2018-05-07T08:32:53.898Z,30
2018-05-07T08:33:54.480Z,30
2018-05-07T08:34:55.061Z,30
2018-05-07T08:35:55.640Z,30
2018-05-07T08:36:56.281Z,30
2018-05-07T08:37:56.863Z,30
2018-05-07T08:38:57.443Z,30
2018-05-07T08:39:58.058Z,30
2018-05-07T08:40:58.604Z,30
2018-05-07T08:41:59.191Z,30
2018-05-07T08:42:59.766Z,30
2018-05-07T08:44:00.376Z,35
2018-05-07T08:45:00.927Z,35
2018-05-07T08:46:01.515Z,35
2018-05-07T08:47:02.105Z,35
2018-05-07T08:48:02.687Z,35
2018-05-07T08:49:03.269Z,35
2018-05-07T08:50:03.847Z,35
2018-05-07T08:51:04.499Z,35
2018-05-07T08:52:05.010Z,35
2018-05-07T08:53:05.609Z,35
2018-05-07T08:54:06.174Z,35
2018-05-07T08:55:06.765Z,35
2018-05-07T08:56:07.348Z,35
2018-05-07T08:57:07.940Z,35
2018-05-07T08:58:08.546Z,35
2018-05-07T08:59:09.099Z,35
2018-05-07T09:00:09.680Z,35
2018-05-07T09:01:10.261Z,35
2018-05-07T09:02:10.845Z,35
2018-05-07T09:03:11.424Z,35
2018-05-07T09:04:12.004Z,35
2018-05-07T09:05:12.585Z,35
2018-05-07T09:06:13.168Z,35
2018-05-07T09:07:13.751Z,35
2018-05-07T09:08:14.328Z,35
2018-05-07T09:09:14.910Z,35
2018-05-07T09:10:15.491Z,35
2018-05-07T09:11:16.073Z,35
2018-05-07T09:12:16.653Z,35
2018-05-07T09:13:17.236Z,35
2018-05-07T09:14:17.819Z,35
2018-05-07T09:15:18.399Z,35
2018-05-07T09:16:18.980Z,35
2018-05-07T09:17:19.572Z,35
2018-05-07T09:18:20.163Z,35
2018-05-07T09:19:20.743Z,35
2018-05-07T09:20:21.324Z,35
2018-05-07T09:21:21.905Z,35
2018-05-07T09:22:22.487Z,35
2018-05-07T09:23:23.071Z,35
2018-05-07T09:24:23.663Z,35
2018-05-07T09:25:24.231Z,35
2018-05-07T09:26:24.811Z,35
2018-05-07T09:27:25.403Z,35
2018-05-07T09:28:25.982Z,35
2018-05-07T09:29:26.574Z,35
2018-05-07T09:30:27.154Z,35
2018-05-07T09:31:27.778Z,35
2018-05-07T09:32:28.316Z,35
2018-05-07T09:33:28.912Z,35
2018-05-07T09:34:29.489Z,35
2018-05-07T09:35:30.068Z,35
2018-05-07T09:36:30.650Z,35
2018-05-07T09:37:31.231Z,35
2018-05-07T09:38:31.863Z,35
2018-05-07T09:39:32.396Z,35
2018-05-07T09:40:32.985Z,35
2018-05-07T09:41:33.565Z,35
2018-05-07T09:42:34.184Z,35
2018-05-07T09:43:34.729Z,35
2018-05-07T09:44:35.320Z,35
2018-05-07T09:45:35.904Z,35
2018-05-07T09:46:36.486Z,35
2018-05-07T09:47:37.079Z,35
2018-05-07T09:48:37.659Z,35
2018-05-07T09:49:38.241Z,35
2018-05-07T09:50:38.822Z,35
2018-05-07T09:51:39.404Z,35
2018-05-07T09:52:39.986Z,35
2018-05-07T09:53:40.567Z,35
2018-05-07T09:54:41.147Z,35
2018-05-07T09:55:41.750Z,35
2018-05-07T09:56:42.402Z,35
2018-05-07T09:57:42.891Z,35
2018-05-07T09:58:43.472Z,35
2018-05-07T09:59:44.064Z,35
2018-05-07T10:00:44.646Z,35
2018-05-07T10:01:45.227Z,35
2018-05-07T10:02:45.807Z,35
2018-05-07T10:03:46.389Z,35
2018-05-07T10:04:46.970Z,35
2018-05-07T10:05:47.552Z,35
2018-05-07T10:06:48.134Z,35
2018-05-07T10:07:48.716Z,35
2018-05-07T10:08:49.297Z,35
2018-05-07T10:09:49.879Z,35
2018-05-07T10:10:50.461Z,35
2018-05-07T10:11:51.041Z,35
2018-05-07T10:12:51.624Z,35
2018-05-07T10:13:52.205Z,35
2018-05-07T10:14:52.785Z,35
2018-05-07T10:15:53.368Z,35
2018-05-07T10:16:53.949Z,35
2018-05-07T10:17:54.531Z,35
2018-05-07T10:18:55.114Z,35
2018-05-07T10:19:55.699Z,35
2018-05-07T10:20:56.276Z,35
2018-05-07T10:21:56.856Z,35
2018-05-07T10:22:57.448Z,35
2018-05-07T10:23:58.033Z,35
2018-05-07T10:24:58.611Z,35
2018-05-07T10:25:59.194Z,35
2018-05-07T10:26:59.775Z,35
2018-05-07T10:28:00.355Z,35
2018-05-07T10:29:00.936Z,35
2018-05-07T10:30:01.536Z,35
2018-05-07T10:31:02.122Z,35
2018-05-07T10:32:02.700Z,35
2018-05-07T10:33:03.282Z,35
2018-05-07T10:34:03.863Z,35
2018-05-07T10:35:04.455Z,35
2018-05-07T10:36:05.036Z,35
2018-05-07T10:37:05.616Z,35
2018-05-07T10:38:06.198Z,35
2018-05-07T10:39:06.781Z,35
2018-05-07T10:40:07.363Z,35
2018-05-07T10:41:07.944Z,35
2018-05-07T10:42:08.525Z,35
2018-05-07T10:43:09.108Z,35
2018-05-07T10:44:09.690Z,35
2018-05-07T10:45:10.272Z,35
2018-05-07T10:46:10.853Z,35
2018-05-07T10:47:11.440Z,35
2018-05-07T10:48:12.029Z,35
2018-05-07T10:49:12.612Z,35
2018-05-07T10:50:13.193Z,35
2018-05-07T10:51:13.775Z,35
2018-05-07T10:52:14.358Z,35
2018-05-07T10:53:14.941Z,35
2018-05-07T10:54:15.520Z,35
2018-05-07T10:55:16.110Z,35
2018-05-07T10:56:16.779Z,35
2018-05-07T10:57:17.274Z,35
2018-05-07T10:58:17.857Z,35
2018-05-07T10:59:18.441Z,35
2018-05-07T11:00:19.019Z,35
2018-05-07T11:01:19.602Z,35
2018-05-07T11:02:20.183Z,35
2018-05-07T11:03:20.765Z,35
2018-05-07T11:04:21.347Z,35
2018-05-07T11:05:21.928Z,35
2018-05-07T11:06:22.512Z,35
2018-05-07T11:07:23.114Z,35
2018-05-07T11:08:23.687Z,35
2018-05-07T11:09:24.277Z,35
2018-05-07T11:10:24.862Z,35
2018-05-07T11:11:25.443Z,35
2018-05-07T11:12:26.026Z,35
2018-05-07T11:13:26.605Z,35
2018-05-07T11:14:27.185Z,35
2018-05-07T11:15:27.769Z,35
2018-05-07T11:16:28.350Z,40
2018-05-07T11:17:28.932Z,35
2018-05-07T11:18:29.513Z,35
2018-05-07T11:19:30.094Z,35
2018-05-07T11:20:30.677Z,35
2018-05-07T11:21:31.259Z,35
2018-05-07T11:22:31.841Z,35
2018-05-07T11:23:32.424Z,35
2018-05-07T11:24:33.002Z,35
2018-05-07T11:25:33.585Z,35
2018-05-07T11:26:34.167Z,40
2018-05-07T11:27:34.750Z,35
2018-05-07T11:28:35.332Z,35
2018-05-07T11:29:35.914Z,35
2018-05-07T11:30:36.499Z,35
2018-05-07T11:31:37.081Z,35
2018-05-07T11:32:37.663Z,35
2018-05-07T11:33:38.247Z,35
2018-05-07T11:34:38.829Z,35
2018-05-07T11:35:39.409Z,35
2018-05-07T11:36:39.992Z,35
2018-05-07T11:37:40.572Z,35
2018-05-07T11:38:41.154Z,35
2018-05-07T11:39:41.737Z,35
2018-05-07T11:40:42.345Z,35
2018-05-07T11:41:42.901Z,35
2018-05-07T11:42:43.484Z,35
2018-05-07T11:43:44.067Z,35
2018-05-07T11:44:44.649Z,35
2018-05-07T11:45:45.230Z,35
2018-05-07T11:46:45.811Z,35
2018-05-07T11:47:46.469Z,35
2018-05-07T11:48:46.985Z,35
2018-05-07T11:49:47.567Z,35
2018-05-07T11:50:48.149Z,35
2018-05-07T11:51:48.734Z,35
2018-05-07T11:52:49.315Z,35
2018-05-07T11:53:49.897Z,35
2018-05-07T11:54:50.480Z,35
2018-05-07T11:55:51.062Z,35
2018-05-07T11:56:51.644Z,35
2018-05-07T11:57:52.226Z,35
2018-05-07T11:58:52.808Z,35
2018-05-07T11:59:53.391Z,35
2018-05-07T12:00:53.973Z,35
2018-05-07T12:01:54.554Z,35
2018-05-07T12:02:55.135Z,35
2018-05-07T12:03:55.718Z,35
2018-05-07T12:04:56.311Z,35
2018-05-07T12:05:56.892Z,35
2018-05-07T12:06:57.486Z,35
2018-05-07T12:07:58.068Z,35
2018-05-07T12:08:58.658Z,35
2018-05-07T12:09:59.238Z,35
2018-05-07T12:10:59.825Z,35
2018-05-07T12:12:00.408Z,35
2018-05-07T12:13:00.989Z,35
2018-05-07T12:14:01.570Z,35
2018-05-07T12:15:02.152Z,35
2018-05-07T12:16:02.837Z,35
2018-05-07T12:17:03.323Z,35
2018-05-07T12:18:03.904Z,35
2018-05-07T12:19:04.487Z,35
2018-05-07T12:20:05.071Z,35
2018-05-07T12:21:05.652Z,35
2018-05-07T12:22:06.234Z,35
2018-05-07T12:23:06.894Z,35
2018-05-07T12:24:07.406Z,35
2018-05-07T12:25:07.988Z,35
2018-05-07T12:26:08.582Z,35
2018-05-07T12:27:09.169Z,35
2018-05-07T12:28:09.757Z,40
2018-05-07T12:29:10.345Z,40
2018-05-07T12:30:10.927Z,40
2018-05-07T12:31:11.521Z,40
2018-05-07T12:32:12.094Z,40
2018-05-07T12:33:12.679Z,40
2018-05-07T12:34:13.256Z,40
2018-05-07T12:35:13.838Z,40
2018-05-07T12:36:14.422Z,40
2018-05-07T12:37:15.005Z,40
2018-05-07T12:38:15.587Z,40
2018-05-07T12:39:16.172Z,40
2018-05-07T12:40:16.763Z,40
2018-05-07T12:41:17.356Z,40
2018-05-07T12:42:17.937Z,40
2018-05-07T12:43:18.521Z,40
2018-05-07T12:44:19.112Z,40
2018-05-07T12:45:19.694Z,40
2018-05-07T12:46:20.276Z,40
2018-05-07T12:47:20.858Z,40
2018-05-07T12:48:21.442Z,40
2018-05-07T12:49:22.026Z,40
2018-05-07T12:50:22.608Z,40
2018-05-07T12:51:23.190Z,40
2018-05-07T12:52:23.854Z,40
2018-05-07T12:53:24.357Z,40
2018-05-07T12:54:24.946Z,40
2018-05-07T12:55:25.531Z,40
2018-05-07T12:56:26.111Z,40
2018-05-07T12:57:26.695Z,40
2018-05-07T12:58:27.277Z,45
2018-05-07T12:59:27.861Z,45
2018-05-07T13:00:28.443Z,40
2018-05-07T13:01:29.026Z,40
2018-05-07T13:02:29.608Z,40
2018-05-07T13:03:30.192Z,40
2018-05-07T13:04:30.787Z,40
2018-05-07T13:05:31.366Z,40
2018-05-07T13:06:31.950Z,40
2018-05-07T13:07:32.535Z,40
2018-05-07T13:08:33.117Z,40
2018-05-07T13:09:33.698Z,40
2018-05-07T13:10:34.279Z,40
2018-05-07T13:11:34.943Z,40
2018-05-07T13:12:35.446Z,40
2018-05-07T13:13:36.041Z,40
2018-05-07T13:14:36.622Z,40
2018-05-07T13:15:37.203Z,40
2018-05-07T13:16:37.796Z,40
2018-05-07T13:17:38.380Z,40
2018-05-07T13:18:38.961Z,40
2018-05-07T13:19:39.543Z,40
2018-05-07T13:20:40.127Z,40
2018-05-07T13:21:40.709Z,40
2018-05-07T13:22:41.294Z,40
2018-05-07T13:23:41.877Z,40
2018-05-07T13:24:42.455Z,40
2018-05-07T13:25:43.039Z,40
2018-05-07T13:26:43.620Z,40
2018-05-07T13:27:44.204Z,40
2018-05-07T13:28:44.786Z,40
2018-05-07T13:29:45.383Z,40
2018-05-07T13:30:45.972Z,40
2018-05-07T13:31:46.555Z,40
2018-05-07T13:32:47.138Z,40
2018-05-07T13:33:47.722Z,40
2018-05-07T13:34:48.306Z,40
2018-05-07T13:35:48.900Z,40
2018-05-07T13:36:49.546Z,40
2018-05-07T13:37:50.079Z,40
2018-05-07T13:38:50.667Z,40
2018-05-07T13:39:51.251Z,40
2018-05-07T13:40:51.828Z,40
2018-05-07T13:41:52.412Z,40
2018-05-07T13:42:52.998Z,40
2018-05-07T13:43:53.582Z,40
2018-05-07T13:44:54.174Z,40
2018-05-07T13:45:54.762Z,40
2018-05-07T13:46:55.340Z,40
2018-05-07T13:47:55.928Z,40
2018-05-07T13:48:56.508Z,40
2018-05-07T13:49:57.093Z,40
2018-05-07T13:50:57.676Z,40
2018-05-07T13:51:58.265Z,40
2018-05-07T13:52:58.847Z,40
2018-05-07T13:53:59.433Z,40
2018-05-07T13:55:00.013Z,40
2018-05-07T13:56:00.598Z,40
2018-05-07T13:57:01.183Z,40
2018-05-07T13:58:01.766Z,40
2018-05-07T13:59:02.350Z,40
2018-05-07T14:00:02.933Z,40
2018-05-07T14:01:03.518Z,40
2018-05-07T14:02:04.103Z,40
2018-05-07T14:03:04.687Z,40
2018-05-07T14:04:05.272Z,40
2018-05-07T14:05:05.853Z,40
2018-05-07T14:06:06.438Z,40
2018-05-07T14:07:07.033Z,40
2018-05-07T14:08:07.617Z,40
2018-05-07T14:09:08.202Z,40
2018-05-07T14:10:08.789Z,40
2018-05-07T14:11:09.383Z,40
2018-05-07T14:12:09.967Z,40
2018-05-07T14:13:10.551Z,40
2018-05-07T14:14:11.135Z,40
2018-05-07T14:15:11.717Z,40
2018-05-07T14:16:12.304Z,40
2018-05-07T14:17:12.885Z,45
2018-05-07T14:18:13.469Z,45
2018-05-07T14:19:14.055Z,45
2018-05-07T14:20:14.637Z,45
2018-05-07T14:21:15.232Z,45
2018-05-07T14:22:15.814Z,45
2018-05-07T14:23:16.397Z,45
2018-05-07T14:24:16.992Z,45
2018-05-07T14:25:17.586Z,45
2018-05-07T14:26:18.203Z,45
2018-05-07T14:27:18.754Z,45
2018-05-07T14:28:19.338Z,45
2018-05-07T14:29:19.924Z,45
2018-05-07T14:30:20.522Z,45
2018-05-07T14:31:21.103Z,45
2018-05-07T14:32:21.688Z,45
2018-05-07T14:33:22.296Z,50